sensor_id;sensor_type;location;lat;lon;timestamp;P1;durP1;ratioP1;P2;durP2;ratioP2
60935;SDS011;46804;51.786;19.520;2023-07-28T00:01:58;7.05;;;3.45;;
60935;SDS011;46804;51.786;19.520;2023-07-28T00:05:59;7.60;;;3.45;;
60935;SDS011;46804;51.786;19.520;2023-07-28T00:09:59;7.63;;;3.50;;
60935;SDS011;46804;51.786;19.520;2023-07-28T00:14:00;4.90;;;3.35;;
60935;SDS011;46804;51.786;19.520;2023-07-28T00:18:01;6.93;;;3.13;;
60935;SDS011;46804;51.786;19.520;2023-07-28T00:22:02;8.27;;;3.15;;
60935;SDS011;46804;51.786;19.520;2023-07-28T00:26:03;6.10;;;3.22;;
60935;SDS011;46804;51.786;19.520;2023-07-28T00:30:03;7.43;;;2.90;;
60935;SDS011;46804;51.786;19.520;2023-07-28T00:34:04;5.22;;;2.90;;
60935;SDS011;46804;51.786;19.520;2023-07-28T00:38:05;6.10;;;3.58;;
60935;SDS011;46804;51.786;19.520;2023-07-28T00:42:06;4.85;;;2.83;;
60935;SDS011;46804;51.786;19.520;2023-07-28T00:46:06;8.10;;;3.25;;
60935;SDS011;46804;51.786;19.520;2023-07-28T00:50:10;5.90;;;3.08;;
60935;SDS011;46804;51.786;19.520;2023-07-28T00:54:12;7.68;;;3.22;;
60935;SDS011;46804;51.786;19.520;2023-07-28T00:58:12;6.28;;;3.08;;
60935;SDS011;46804;51.786;19.520;2023-07-28T01:02:13;5.10;;;3.13;;
60935;SDS011;46804;51.786;19.520;2023-07-28T01:06:24;6.45;;;3.47;;
60935;SDS011;46804;51.786;19.520;2023-07-28T01:10:30;5.35;;;3.45;;
60935;SDS011;46804;51.786;19.520;2023-07-28T01:14:32;7.43;;;3.33;;
60935;SDS011;46804;51.786;19.520;2023-07-28T01:18:33;6.82;;;3.50;;
60935;SDS011;46804;51.786;19.520;2023-07-28T01:22:46;5.55;;;3.58;;
60935;SDS011;46804;51.786;19.520;2023-07-28T01:26:51;4.80;;;3.15;;
60935;SDS011;46804;51.786;19.520;2023-07-28T01:30:51;8.95;;;3.42;;
60935;SDS011;46804;51.786;19.520;2023-07-28T01:34:52;7.72;;;4.05;;
60935;SDS011;46804;51.786;19.520;2023-07-28T01:38:53;5.75;;;3.40;;
60935;SDS011;46804;51.786;19.520;2023-07-28T01:42:54;7.60;;;3.45;;
60935;SDS011;46804;51.786;19.520;2023-07-28T01:46:55;5.95;;;3.63;;
60935;SDS011;46804;51.786;19.520;2023-07-28T01:50:55;7.53;;;3.53;;
60935;SDS011;46804;51.786;19.520;2023-07-28T01:54:56;7.32;;;3.65;;
60935;SDS011;46804;51.786;19.520;2023-07-28T01:58:57;8.35;;;3.97;;
60935;SDS011;46804;51.786;19.520;2023-07-28T02:02:58;6.38;;;4.30;;
60935;SDS011;46804;51.786;19.520;2023-07-28T02:07:02;6.10;;;3.63;;
60935;SDS011;46804;51.786;19.520;2023-07-28T02:11:02;9.18;;;4.07;;
60935;SDS011;46804;51.786;19.520;2023-07-28T02:15:04;6.78;;;3.75;;
60935;SDS011;46804;51.786;19.520;2023-07-28T02:19:05;6.32;;;3.92;;
60935;SDS011;46804;51.786;19.520;2023-07-28T02:23:06;9.20;;;3.90;;
60935;SDS011;46804;51.786;19.520;2023-07-28T02:27:07;8.45;;;4.07;;
60935;SDS011;46804;51.786;19.520;2023-07-28T02:31:08;6.47;;;4.15;;
60935;SDS011;46804;51.786;19.520;2023-07-28T02:35:08;7.88;;;3.88;;
60935;SDS011;46804;51.786;19.520;2023-07-28T02:39:10;6.30;;;4.13;;
60935;SDS011;46804;51.786;19.520;2023-07-28T02:43:11;8.00;;;4.60;;
60935;SDS011;46804;51.786;19.520;2023-07-28T02:47:12;8.68;;;4.55;;
60935;SDS011;46804;51.786;19.520;2023-07-28T02:51:12;7.75;;;4.45;;
60935;SDS011;46804;51.786;19.520;2023-07-28T02:55:13;8.82;;;4.60;;
60935;SDS011;46804;51.786;19.520;2023-07-28T02:59:14;8.80;;;4.53;;
60935;SDS011;46804;51.786;19.520;2023-07-28T03:03:14;10.45;;;4.50;;
60935;SDS011;46804;51.786;19.520;2023-07-28T03:07:15;7.63;;;4.57;;
60935;SDS011;46804;51.786;19.520;2023-07-28T03:11:16;9.10;;;4.40;;
60935;SDS011;46804;51.786;19.520;2023-07-28T03:15:17;9.70;;;4.47;;
60935;SDS011;46804;51.786;19.520;2023-07-28T03:19:17;10.35;;;4.45;;
60935;SDS011;46804;51.786;19.520;2023-07-28T03:23:18;6.80;;;4.50;;
60935;SDS011;46804;51.786;19.520;2023-07-28T03:27:19;9.20;;;4.20;;
60935;SDS011;46804;51.786;19.520;2023-07-28T03:31:19;6.88;;;4.45;;
60935;SDS011;46804;51.786;19.520;2023-07-28T03:35:20;7.00;;;3.83;;
60935;SDS011;46804;51.786;19.520;2023-07-28T03:39:21;5.82;;;3.90;;
60935;SDS011;46804;51.786;19.520;2023-07-28T03:43:22;11.82;;;3.47;;
60935;SDS011;46804;51.786;19.520;2023-07-28T03:47:22;9.73;;;3.28;;
60935;SDS011;46804;51.786;19.520;2023-07-28T03:51:23;5.47;;;3.00;;
60935;SDS011;46804;51.786;19.520;2023-07-28T03:55:24;7.97;;;3.15;;
60935;SDS011;46804;51.786;19.520;2023-07-28T03:59:24;9.95;;;2.97;;
60935;SDS011;46804;51.786;19.520;2023-07-28T04:03:25;7.68;;;3.53;;
60935;SDS011;46804;51.786;19.520;2023-07-28T04:07:26;5.25;;;2.72;;
60935;SDS011;46804;51.786;19.520;2023-07-28T04:11:27;7.38;;;3.30;;
60935;SDS011;46804;51.786;19.520;2023-07-28T04:15:27;5.30;;;2.65;;
60935;SDS011;46804;51.786;19.520;2023-07-28T04:19:28;4.78;;;3.05;;
60935;SDS011;46804;51.786;19.520;2023-07-28T04:23:30;6.25;;;3.25;;
60935;SDS011;46804;51.786;19.520;2023-07-28T04:27:30;6.45;;;3.30;;
60935;SDS011;46804;51.786;19.520;2023-07-28T04:31:31;4.95;;;3.63;;
60935;SDS011;46804;51.786;19.520;2023-07-28T04:35:32;8.82;;;3.72;;
60935;SDS011;46804;51.786;19.520;2023-07-28T04:39:32;7.72;;;4.38;;
60935;SDS011;46804;51.786;19.520;2023-07-28T04:43:33;6.53;;;4.20;;
60935;SDS011;46804;51.786;19.520;2023-07-28T04:47:34;8.15;;;4.82;;
60935;SDS011;46804;51.786;19.520;2023-07-28T04:51:35;8.63;;;5.07;;
60935;SDS011;46804;51.786;19.520;2023-07-28T04:55:35;15.68;;;5.70;;
60935;SDS011;46804;51.786;19.520;2023-07-28T04:59:36;9.27;;;5.70;;
60935;SDS011;46804;51.786;19.520;2023-07-28T05:03:37;13.07;;;6.20;;
60935;SDS011;46804;51.786;19.520;2023-07-28T05:07:37;12.63;;;6.40;;
60935;SDS011;46804;51.786;19.520;2023-07-28T05:11:38;10.57;;;6.40;;
60935;SDS011;46804;51.786;19.520;2023-07-28T05:15:39;8.80;;;6.15;;
60935;SDS011;46804;51.786;19.520;2023-07-28T05:19:40;10.77;;;6.45;;
60935;SDS011;46804;51.786;19.520;2023-07-28T05:23:41;13.77;;;7.22;;
60935;SDS011;46804;51.786;19.520;2023-07-28T05:27:41;12.98;;;6.80;;
60935;SDS011;46804;51.786;19.520;2023-07-28T05:31:42;8.60;;;6.28;;
60935;SDS011;46804;51.786;19.520;2023-07-28T05:35:43;9.45;;;6.75;;
60935;SDS011;46804;51.786;19.520;2023-07-28T05:39:43;10.85;;;6.93;;
60935;SDS011;46804;51.786;19.520;2023-07-28T05:43:44;15.18;;;7.45;;
60935;SDS011;46804;51.786;19.520;2023-07-28T05:47:45;12.35;;;8.35;;
60935;SDS011;46804;51.786;19.520;2023-07-28T05:51:46;17.90;;;8.40;;
60935;SDS011;46804;51.786;19.520;2023-07-28T05:55:47;12.70;;;7.93;;
60935;SDS011;46804;51.786;19.520;2023-07-28T05:59:49;10.43;;;7.88;;
60935;SDS011;46804;51.786;19.520;2023-07-28T06:03:50;12.48;;;8.27;;
60935;SDS011;46804;51.786;19.520;2023-07-28T06:07:52;13.77;;;7.82;;
60935;SDS011;46804;51.786;19.520;2023-07-28T06:11:53;13.10;;;7.65;;
60935;SDS011;46804;51.786;19.520;2023-07-28T06:15:53;11.50;;;7.57;;
60935;SDS011;46804;51.786;19.520;2023-07-28T06:19:58;9.15;;;7.63;;
60935;SDS011;46804;51.786;19.520;2023-07-28T06:23:59;10.75;;;8.15;;
60935;SDS011;46804;51.786;19.520;2023-07-28T06:28:00;15.57;;;8.23;;
60935;SDS011;46804;51.786;19.520;2023-07-28T06:32:01;11.85;;;7.93;;
60935;SDS011;46804;51.786;19.520;2023-07-28T06:36:02;13.27;;;7.90;;
60935;SDS011;46804;51.786;19.520;2023-07-28T06:40:06;9.27;;;7.82;;
60935;SDS011;46804;51.786;19.520;2023-07-28T06:44:09;10.38;;;7.65;;
60935;SDS011;46804;51.786;19.520;2023-07-28T06:48:10;10.65;;;6.93;;
60935;SDS011;46804;51.786;19.520;2023-07-28T06:52:10;12.35;;;7.57;;
60935;SDS011;46804;51.786;19.520;2023-07-28T06:56:11;12.10;;;7.40;;
60935;SDS011;46804;51.786;19.520;2023-07-28T07:00:12;12.73;;;7.43;;
60935;SDS011;46804;51.786;19.520;2023-07-28T07:04:13;10.50;;;7.28;;
60935;SDS011;46804;51.786;19.520;2023-07-28T07:08:14;10.30;;;7.90;;
60935;SDS011;46804;51.786;19.520;2023-07-28T07:12:15;10.63;;;6.88;;
60935;SDS011;46804;51.786;19.520;2023-07-28T07:16:16;8.63;;;6.18;;
60935;SDS011;46804;51.786;19.520;2023-07-28T07:20:17;10.10;;;6.85;;
60935;SDS011;46804;51.786;19.520;2023-07-28T07:24:17;9.03;;;6.27;;
60935;SDS011;46804;51.786;19.520;2023-07-28T07:28:18;10.48;;;6.15;;
60935;SDS011;46804;51.786;19.520;2023-07-28T07:32:20;10.30;;;5.25;;
60935;SDS011;46804;51.786;19.520;2023-07-28T07:36:20;7.88;;;5.25;;
60935;SDS011;46804;51.786;19.520;2023-07-28T07:40:21;10.40;;;5.35;;
60935;SDS011;46804;51.786;19.520;2023-07-28T07:44:22;8.68;;;5.65;;
60935;SDS011;46804;51.786;19.520;2023-07-28T07:48:22;8.48;;;5.28;;
60935;SDS011;46804;51.786;19.520;2023-07-28T07:52:23;7.97;;;5.40;;
60935;SDS011;46804;51.786;19.520;2023-07-28T07:56:24;10.27;;;5.20;;
60935;SDS011;46804;51.786;19.520;2023-07-28T08:00:25;6.13;;;4.75;;
60935;SDS011;46804;51.786;19.520;2023-07-28T08:04:25;7.22;;;5.00;;
60935;SDS011;46804;51.786;19.520;2023-07-28T08:08:28;12.37;;;4.70;;
60935;SDS011;46804;51.786;19.520;2023-07-28T08:12:29;7.10;;;4.80;;
60935;SDS011;46804;51.786;19.520;2023-07-28T08:16:29;7.75;;;4.78;;
60935;SDS011;46804;51.786;19.520;2023-07-28T08:20:30;6.72;;;4.15;;
60935;SDS011;46804;51.786;19.520;2023-07-28T08:24:31;7.13;;;4.25;;
60935;SDS011;46804;51.786;19.520;2023-07-28T08:28:32;6.30;;;3.67;;
60935;SDS011;46804;51.786;19.520;2023-07-28T08:32:33;6.38;;;3.78;;
60935;SDS011;46804;51.786;19.520;2023-07-28T08:36:34;5.20;;;3.97;;
60935;SDS011;46804;51.786;19.520;2023-07-28T08:40:34;7.40;;;3.97;;
60935;SDS011;46804;51.786;19.520;2023-07-28T08:44:36;6.07;;;4.00;;
60935;SDS011;46804;51.786;19.520;2023-07-28T08:48:37;7.38;;;4.45;;
60935;SDS011;46804;51.786;19.520;2023-07-28T08:52:37;6.60;;;4.20;;
60935;SDS011;46804;51.786;19.520;2023-07-28T08:56:38;8.52;;;4.28;;
60935;SDS011;46804;51.786;19.520;2023-07-28T09:00:40;6.95;;;4.35;;
60935;SDS011;46804;51.786;19.520;2023-07-28T09:04:41;6.70;;;4.10;;
60935;SDS011;46804;51.786;19.520;2023-07-28T09:08:43;7.93;;;4.28;;
60935;SDS011;46804;51.786;19.520;2023-07-28T09:12:44;6.35;;;4.45;;
60935;SDS011;46804;51.786;19.520;2023-07-28T09:16:46;8.25;;;4.22;;
60935;SDS011;46804;51.786;19.520;2023-07-28T09:20:47;7.10;;;4.32;;
60935;SDS011;46804;51.786;19.520;2023-07-28T09:24:48;7.65;;;3.90;;
60935;SDS011;46804;51.786;19.520;2023-07-28T09:28:50;5.53;;;3.47;;
60935;SDS011;46804;51.786;19.520;2023-07-28T09:32:52;5.00;;;2.75;;
60935;SDS011;46804;51.786;19.520;2023-07-28T09:40:55;4.57;;;2.60;;
60935;SDS011;46804;51.786;19.520;2023-07-28T09:44:57;5.15;;;3.28;;
60935;SDS011;46804;51.786;19.520;2023-07-28T09:48:58;5.10;;;3.05;;
60935;SDS011;46804;51.786;19.520;2023-07-28T09:53:02;5.32;;;3.35;;
60935;SDS011;46804;51.786;19.520;2023-07-28T09:57:03;6.20;;;3.40;;
60935;SDS011;46804;51.786;19.520;2023-07-28T10:01:06;6.38;;;3.30;;
60935;SDS011;46804;51.786;19.520;2023-07-28T10:05:08;6.80;;;4.05;;
60935;SDS011;46804;51.786;19.520;2023-07-28T10:09:10;9.45;;;5.18;;
60935;SDS011;46804;51.786;19.520;2023-07-28T10:13:19;6.57;;;4.50;;
60935;SDS011;46804;51.786;19.520;2023-07-28T10:17:21;7.78;;;4.95;;
60935;SDS011;46804;51.786;19.520;2023-07-28T10:21:31;6.47;;;5.00;;
60935;SDS011;46804;51.786;19.520;2023-07-28T10:25:39;6.47;;;4.20;;
60935;SDS011;46804;51.786;19.520;2023-07-28T10:29:41;10.25;;;4.30;;
60935;SDS011;46804;51.786;19.520;2023-07-28T10:33:56;7.07;;;4.40;;
60935;SDS011;46804;51.786;19.520;2023-07-28T10:37:57;9.00;;;3.90;;
60935;SDS011;46804;51.786;19.520;2023-07-28T10:42:05;5.03;;;2.97;;
60935;SDS011;46804;51.786;19.520;2023-07-28T10:46:09;8.27;;;3.13;;
60935;SDS011;46804;51.786;19.520;2023-07-28T10:54:13;4.85;;;2.00;;
60935;SDS011;46804;51.786;19.520;2023-07-28T10:58:17;3.38;;;2.38;;
60935;SDS011;46804;51.786;19.520;2023-07-28T11:02:20;5.93;;;2.22;;
60935;SDS011;46804;51.786;19.520;2023-07-28T11:06:20;3.00;;;2.27;;
60935;SDS011;46804;51.786;19.520;2023-07-28T11:10:21;3.17;;;2.17;;
60935;SDS011;46804;51.786;19.520;2023-07-28T11:14:22;6.60;;;3.47;;
60935;SDS011;46804;51.786;19.520;2023-07-28T11:18:25;4.00;;;2.75;;
60935;SDS011;46804;51.786;19.520;2023-07-28T11:22:27;4.03;;;2.60;;
60935;SDS011;46804;51.786;19.520;2023-07-28T11:26:28;3.80;;;2.50;;
60935;SDS011;46804;51.786;19.520;2023-07-28T11:30:28;3.47;;;2.40;;
60935;SDS011;46804;51.786;19.520;2023-07-28T11:34:33;4.43;;;2.67;;
60935;SDS011;46804;51.786;19.520;2023-07-28T11:38:36;3.47;;;2.50;;
60935;SDS011;46804;51.786;19.520;2023-07-28T11:42:38;4.95;;;2.92;;
60935;SDS011;46804;51.786;19.520;2023-07-28T11:46:40;5.55;;;2.72;;
60935;SDS011;46804;51.786;19.520;2023-07-28T11:50:42;4.28;;;3.28;;
60935;SDS011;46804;51.786;19.520;2023-07-28T11:54:44;5.82;;;3.60;;
60935;SDS011;46804;51.786;19.520;2023-07-28T11:58:49;5.78;;;4.05;;
60935;SDS011;46804;51.786;19.520;2023-07-28T12:02:59;4.72;;;3.50;;
60935;SDS011;46804;51.786;19.520;2023-07-28T12:07:02;4.90;;;3.47;;
60935;SDS011;46804;51.786;19.520;2023-07-28T12:11:10;4.55;;;3.45;;
60935;SDS011;46804;51.786;19.520;2023-07-28T12:15:20;6.20;;;3.85;;
60935;SDS011;46804;51.786;19.520;2023-07-28T12:19:22;5.78;;;4.15;;
60935;SDS011;46804;51.786;19.520;2023-07-28T12:23:23;4.97;;;4.05;;
60935;SDS011;46804;51.786;19.520;2023-07-28T12:27:23;7.20;;;3.88;;
60935;SDS011;46804;51.786;19.520;2023-07-28T12:31:26;5.10;;;3.55;;
60935;SDS011;46804;51.786;19.520;2023-07-28T12:35:27;6.25;;;3.08;;
60935;SDS011;46804;51.786;19.520;2023-07-28T12:39:31;4.95;;;3.40;;
60935;SDS011;46804;51.786;19.520;2023-07-28T12:43:31;5.60;;;3.33;;
60935;SDS011;46804;51.786;19.520;2023-07-28T12:47:32;5.45;;;3.33;;
60935;SDS011;46804;51.786;19.520;2023-07-28T12:51:33;4.60;;;3.42;;
60935;SDS011;46804;51.786;19.520;2023-07-28T12:55:34;6.85;;;4.72;;
60935;SDS011;46804;51.786;19.520;2023-07-28T12:59:35;8.82;;;6.10;;
60935;SDS011;46804;51.786;19.520;2023-07-28T13:03:36;6.85;;;5.50;;
60935;SDS011;46804;51.786;19.520;2023-07-28T13:07:38;8.48;;;6.57;;
60935;SDS011;46804;51.786;19.520;2023-07-28T13:11:39;7.85;;;6.20;;
60935;SDS011;46804;51.786;19.520;2023-07-28T13:15:40;8.05;;;6.47;;
60935;SDS011;46804;51.786;19.520;2023-07-28T13:19:41;8.00;;;6.90;;
60935;SDS011;46804;51.786;19.520;2023-07-28T13:23:41;7.68;;;5.82;;
60935;SDS011;46804;51.786;19.520;2023-07-28T13:27:42;6.70;;;5.13;;
60935;SDS011;46804;51.786;19.520;2023-07-28T13:31:43;5.00;;;4.00;;
60935;SDS011;46804;51.786;19.520;2023-07-28T13:35:44;5.63;;;4.53;;
60935;SDS011;46804;51.786;19.520;2023-07-28T13:39:44;5.95;;;4.55;;
60935;SDS011;46804;51.786;19.520;2023-07-28T13:43:45;6.47;;;4.35;;
60935;SDS011;46804;51.786;19.520;2023-07-28T13:47:46;7.40;;;4.28;;
60935;SDS011;46804;51.786;19.520;2023-07-28T13:51:46;8.40;;;4.50;;
60935;SDS011;46804;51.786;19.520;2023-07-28T13:55:47;5.25;;;4.38;;
60935;SDS011;46804;51.786;19.520;2023-07-28T13:59:48;5.45;;;4.47;;
60935;SDS011;46804;51.786;19.520;2023-07-28T14:03:48;5.50;;;4.85;;
60935;SDS011;46804;51.786;19.520;2023-07-28T14:07:49;7.40;;;4.65;;
60935;SDS011;46804;51.786;19.520;2023-07-28T14:11:50;14.55;;;5.68;;
60935;SDS011;46804;51.786;19.520;2023-07-28T14:15:51;5.97;;;4.50;;
60935;SDS011;46804;51.786;19.520;2023-07-28T14:19:52;7.43;;;4.57;;
60935;SDS011;46804;51.786;19.520;2023-07-28T14:23:53;5.68;;;4.07;;
60935;SDS011;46804;51.786;19.520;2023-07-28T14:27:53;7.55;;;5.28;;
60935;SDS011;46804;51.786;19.520;2023-07-28T14:31:54;5.45;;;4.57;;
60935;SDS011;46804;51.786;19.520;2023-07-28T14:35:55;6.82;;;5.25;;
60935;SDS011;46804;51.786;19.520;2023-07-28T14:39:55;7.38;;;4.78;;
60935;SDS011;46804;51.786;19.520;2023-07-28T14:43:56;8.05;;;4.45;;
60935;SDS011;46804;51.786;19.520;2023-07-28T14:47:57;7.68;;;5.45;;
60935;SDS011;46804;51.786;19.520;2023-07-28T14:51:58;6.90;;;6.20;;
60935;SDS011;46804;51.786;19.520;2023-07-28T14:55:59;8.45;;;5.35;;
60935;SDS011;46804;51.786;19.520;2023-07-28T15:00:00;5.40;;;4.47;;
60935;SDS011;46804;51.786;19.520;2023-07-28T15:04:00;5.15;;;3.30;;
60935;SDS011;46804;51.786;19.520;2023-07-28T15:08:03;7.82;;;2.88;;
60935;SDS011;46804;51.786;19.520;2023-07-28T15:12:04;5.10;;;3.17;;
60935;SDS011;46804;51.786;19.520;2023-07-28T15:16:05;5.55;;;3.58;;
60935;SDS011;46804;51.786;19.520;2023-07-28T15:20:06;5.88;;;3.53;;
60935;SDS011;46804;51.786;19.520;2023-07-28T15:24:07;5.22;;;3.70;;
60935;SDS011;46804;51.786;19.520;2023-07-28T15:28:11;4.32;;;3.25;;
60935;SDS011;46804;51.786;19.520;2023-07-28T15:32:13;4.30;;;3.38;;
60935;SDS011;46804;51.786;19.520;2023-07-28T15:36:13;3.88;;;2.60;;
60935;SDS011;46804;51.786;19.520;2023-07-28T15:40:14;5.78;;;3.17;;
60935;SDS011;46804;51.786;19.520;2023-07-28T15:44:15;5.05;;;3.03;;
60935;SDS011;46804;51.786;19.520;2023-07-28T15:48:15;8.27;;;3.38;;
60935;SDS011;46804;51.786;19.520;2023-07-28T15:52:16;7.10;;;4.28;;
60935;SDS011;46804;51.786;19.520;2023-07-28T15:56:17;4.70;;;3.50;;
60935;SDS011;46804;51.786;19.520;2023-07-28T16:00:18;10.68;;;3.83;;
60935;SDS011;46804;51.786;19.520;2023-07-28T16:04:19;4.72;;;3.65;;
60935;SDS011;46804;51.786;19.520;2023-07-28T16:08:19;3.90;;;2.90;;
60935;SDS011;46804;51.786;19.520;2023-07-28T16:12:20;4.95;;;3.08;;
60935;SDS011;46804;51.786;19.520;2023-07-28T16:16:21;5.57;;;2.50;;
60935;SDS011;46804;51.786;19.520;2023-07-28T16:20:22;9.95;;;2.58;;
60935;SDS011;46804;51.786;19.520;2023-07-28T16:24:22;5.13;;;2.30;;
60935;SDS011;46804;51.786;19.520;2023-07-28T16:28:23;3.63;;;2.40;;
60935;SDS011;46804;51.786;19.520;2023-07-28T16:32:24;3.22;;;2.15;;
60935;SDS011;46804;51.786;19.520;2023-07-28T16:36:24;2.90;;;2.00;;
60935;SDS011;46804;51.786;19.520;2023-07-28T16:40:25;4.78;;;2.40;;
60935;SDS011;46804;51.786;19.520;2023-07-28T16:44:26;4.53;;;2.42;;
60935;SDS011;46804;51.786;19.520;2023-07-28T16:48:27;4.22;;;2.00;;
60935;SDS011;46804;51.786;19.520;2023-07-28T16:52:28;4.80;;;2.22;;
60935;SDS011;46804;51.786;19.520;2023-07-28T16:56:28;3.75;;;2.10;;
60935;SDS011;46804;51.786;19.520;2023-07-28T17:00:29;5.82;;;2.00;;
60935;SDS011;46804;51.786;19.520;2023-07-28T17:04:30;3.35;;;2.20;;
60935;SDS011;46804;51.786;19.520;2023-07-28T17:08:30;4.13;;;2.58;;
60935;SDS011;46804;51.786;19.520;2023-07-28T17:12:31;8.45;;;2.60;;
60935;SDS011;46804;51.786;19.520;2023-07-28T17:16:32;3.72;;;2.70;;
60935;SDS011;46804;51.786;19.520;2023-07-28T17:20:32;6.53;;;3.43;;
60935;SDS011;46804;51.786;19.520;2023-07-28T17:24:33;7.32;;;3.97;;
60935;SDS011;46804;51.786;19.520;2023-07-28T17:28:33;8.82;;;3.67;;
60935;SDS011;46804;51.786;19.520;2023-07-28T17:32:34;5.70;;;3.60;;
60935;SDS011;46804;51.786;19.520;2023-07-28T17:36:35;6.13;;;4.00;;
60935;SDS011;46804;51.786;19.520;2023-07-28T17:40:35;5.20;;;4.20;;
60935;SDS011;46804;51.786;19.520;2023-07-28T17:44:36;7.45;;;4.43;;
60935;SDS011;46804;51.786;19.520;2023-07-28T17:48:37;4.53;;;3.65;;
60935;SDS011;46804;51.786;19.520;2023-07-28T17:52:38;5.22;;;4.35;;
60935;SDS011;46804;51.786;19.520;2023-07-28T17:56:38;4.93;;;4.22;;
60935;SDS011;46804;51.786;19.520;2023-07-28T18:00:39;5.70;;;4.75;;
60935;SDS011;46804;51.786;19.520;2023-07-28T18:04:40;5.65;;;4.47;;
60935;SDS011;46804;51.786;19.520;2023-07-28T18:08:41;7.90;;;4.63;;
60935;SDS011;46804;51.786;19.520;2023-07-28T18:12:41;6.68;;;4.85;;
60935;SDS011;46804;51.786;19.520;2023-07-28T18:16:41;6.63;;;4.80;;
60935;SDS011;46804;51.786;19.520;2023-07-28T18:20:42;6.85;;;4.97;;
60935;SDS011;46804;51.786;19.520;2023-07-28T18:24:43;6.97;;;4.97;;
60935;SDS011;46804;51.786;19.520;2023-07-28T18:28:43;5.88;;;4.53;;
60935;SDS011;46804;51.786;19.520;2023-07-28T18:32:44;6.68;;;5.20;;
60935;SDS011;46804;51.786;19.520;2023-07-28T18:36:44;5.17;;;4.50;;
60935;SDS011;46804;51.786;19.520;2023-07-28T18:40:45;6.78;;;5.38;;
60935;SDS011;46804;51.786;19.520;2023-07-28T18:44:46;6.90;;;5.53;;
60935;SDS011;46804;51.786;19.520;2023-07-28T18:48:46;6.50;;;5.30;;
60935;SDS011;46804;51.786;19.520;2023-07-28T18:52:49;7.97;;;6.63;;
60935;SDS011;46804;51.786;19.520;2023-07-28T18:56:50;7.50;;;5.65;;
60935;SDS011;46804;51.786;19.520;2023-07-28T19:00:51;7.95;;;5.45;;
60935;SDS011;46804;51.786;19.520;2023-07-28T19:04:52;7.65;;;5.95;;
60935;SDS011;46804;51.786;19.520;2023-07-28T19:08:53;7.85;;;6.32;;
60935;SDS011;46804;51.786;19.520;2023-07-28T19:12:55;9.40;;;5.93;;
60935;SDS011;46804;51.786;19.520;2023-07-28T19:16:55;11.52;;;6.25;;
60935;SDS011;46804;51.786;19.520;2023-07-28T19:20:56;8.45;;;5.65;;
60935;SDS011;46804;51.786;19.520;2023-07-28T19:24:57;10.40;;;6.57;;
60935;SDS011;46804;51.786;19.520;2023-07-28T19:28:57;7.05;;;5.45;;
60935;SDS011;46804;51.786;19.520;2023-07-28T19:33:00;8.15;;;5.18;;
60935;SDS011;46804;51.786;19.520;2023-07-28T19:37:00;9.15;;;5.50;;
60935;SDS011;46804;51.786;19.520;2023-07-28T19:41:01;8.65;;;6.05;;
60935;SDS011;46804;51.786;19.520;2023-07-28T19:45:02;6.43;;;5.20;;
60935;SDS011;46804;51.786;19.520;2023-07-28T19:49:02;7.10;;;4.72;;
60935;SDS011;46804;51.786;19.520;2023-07-28T19:53:04;11.70;;;6.43;;
60935;SDS011;46804;51.786;19.520;2023-07-28T19:57:06;7.10;;;5.47;;
60935;SDS011;46804;51.786;19.520;2023-07-28T20:01:07;7.25;;;6.07;;
60935;SDS011;46804;51.786;19.520;2023-07-28T20:05:08;12.77;;;7.15;;
60935;SDS011;46804;51.786;19.520;2023-07-28T20:09:09;14.88;;;6.70;;
60935;SDS011;46804;51.786;19.520;2023-07-28T20:13:09;12.43;;;6.80;;
60935;SDS011;46804;51.786;19.520;2023-07-28T20:17:10;10.43;;;7.20;;
60935;SDS011;46804;51.786;19.520;2023-07-28T20:21:11;9.23;;;6.57;;
60935;SDS011;46804;51.786;19.520;2023-07-28T20:25:11;12.52;;;6.78;;
60935;SDS011;46804;51.786;19.520;2023-07-28T20:29:12;24.83;;;6.88;;
60935;SDS011;46804;51.786;19.520;2023-07-28T20:33:13;12.75;;;7.53;;
60935;SDS011;46804;51.786;19.520;2023-07-28T20:37:13;9.90;;;6.90;;
60935;SDS011;46804;51.786;19.520;2023-07-28T20:41:14;20.90;;;7.47;;
60935;SDS011;46804;51.786;19.520;2023-07-28T20:45:17;9.75;;;7.18;;
60935;SDS011;46804;51.786;19.520;2023-07-28T20:49:18;9.52;;;6.85;;
60935;SDS011;46804;51.786;19.520;2023-07-28T20:53:18;12.73;;;7.57;;
60935;SDS011;46804;51.786;19.520;2023-07-28T20:57:21;124.43;;;10.35;;
60935;SDS011;46804;51.786;19.520;2023-07-28T21:01:22;10.95;;;6.85;;
60935;SDS011;46804;51.786;19.520;2023-07-28T21:05:22;44.55;;;7.38;;
60935;SDS011;46804;51.786;19.520;2023-07-28T21:09:23;35.42;;;6.93;;
60935;SDS011;46804;51.786;19.520;2023-07-28T21:13:24;13.07;;;7.13;;
60935;SDS011;46804;51.786;19.520;2023-07-28T21:17:24;11.68;;;6.22;;
60935;SDS011;46804;51.786;19.520;2023-07-28T21:21:25;108.55;;;10.18;;
60935;SDS011;46804;51.786;19.520;2023-07-28T21:25:26;12.05;;;5.97;;
60935;SDS011;46804;51.786;19.520;2023-07-28T21:29:27;10.23;;;6.00;;
60935;SDS011;46804;51.786;19.520;2023-07-28T21:33:27;11.27;;;6.68;;
60935;SDS011;46804;51.786;19.520;2023-07-28T21:37:28;9.52;;;5.78;;
60935;SDS011;46804;51.786;19.520;2023-07-28T21:41:29;14.00;;;6.15;;
60935;SDS011;46804;51.786;19.520;2023-07-28T21:45:29;8.82;;;5.80;;
60935;SDS011;46804;51.786;19.520;2023-07-28T21:49:30;57.35;;;7.28;;
60935;SDS011;46804;51.786;19.520;2023-07-28T21:53:31;17.25;;;6.45;;
60935;SDS011;46804;51.786;19.520;2023-07-28T21:57:31;12.13;;;6.28;;
60935;SDS011;46804;51.786;19.520;2023-07-28T22:01:32;37.80;;;7.57;;
60935;SDS011;46804;51.786;19.520;2023-07-28T22:05:33;14.32;;;7.13;;
60935;SDS011;46804;51.786;19.520;2023-07-28T22:09:33;18.77;;;7.25;;
60935;SDS011;46804;51.786;19.520;2023-07-28T22:13:34;13.13;;;7.22;;
60935;SDS011;46804;51.786;19.520;2023-07-28T22:17:35;15.85;;;8.38;;
60935;SDS011;46804;51.786;19.520;2023-07-28T22:21:36;14.32;;;8.45;;
60935;SDS011;46804;51.786;19.520;2023-07-28T22:25:41;17.83;;;8.55;;
60935;SDS011;46804;51.786;19.520;2023-07-28T22:29:43;12.50;;;7.65;;
60935;SDS011;46804;51.786;19.520;2023-07-28T22:33:44;14.35;;;8.13;;
60935;SDS011;46804;51.786;19.520;2023-07-28T22:37:45;110.60;;;10.57;;
60935;SDS011;46804;51.786;19.520;2023-07-28T22:41:45;10.73;;;7.80;;
60935;SDS011;46804;51.786;19.520;2023-07-28T22:45:46;28.73;;;7.97;;
60935;SDS011;46804;51.786;19.520;2023-07-28T22:49:47;10.63;;;7.28;;
60935;SDS011;46804;51.786;19.520;2023-07-28T22:53:47;12.20;;;6.65;;
60935;SDS011;46804;51.786;19.520;2023-07-28T22:57:48;22.73;;;8.45;;
60935;SDS011;46804;51.786;19.520;2023-07-28T23:01:49;14.50;;;7.65;;
60935;SDS011;46804;51.786;19.520;2023-07-28T23:05:50;13.30;;;8.45;;
60935;SDS011;46804;51.786;19.520;2023-07-28T23:09:51;12.25;;;8.82;;
60935;SDS011;46804;51.786;19.520;2023-07-28T23:13:52;12.40;;;8.93;;
60935;SDS011;46804;51.786;19.520;2023-07-28T23:17:53;13.98;;;9.75;;
60935;SDS011;46804;51.786;19.520;2023-07-28T23:21:53;14.30;;;10.40;;
60935;SDS011;46804;51.786;19.520;2023-07-28T23:25:54;17.17;;;9.10;;
60935;SDS011;46804;51.786;19.520;2023-07-28T23:29:55;14.77;;;9.77;;
60935;SDS011;46804;51.786;19.520;2023-07-28T23:33:55;18.00;;;10.52;;
60935;SDS011;46804;51.786;19.520;2023-07-28T23:37:56;21.42;;;10.75;;
60935;SDS011;46804;51.786;19.520;2023-07-28T23:41:57;15.40;;;11.02;;
60935;SDS011;46804;51.786;19.520;2023-07-28T23:46:00;23.00;;;11.32;;
60935;SDS011;46804;51.786;19.520;2023-07-28T23:50:00;15.23;;;11.35;;
60935;SDS011;46804;51.786;19.520;2023-07-28T23:54:01;27.98;;;10.82;;